createdAt,value
2022-12-16T00:02:22.353Z,100306.97
2022-12-16T00:04:50.168Z,100298.06
2022-12-16T00:07:18.292Z,100299.66
2022-12-16T00:09:46.027Z,100301.92
2022-12-16T00:12:13.623Z,100297.29
2022-12-16T00:14:41.275Z,100290.59
2022-12-16T00:17:08.952Z,100285.73
2022-12-16T00:19:36.842Z,100282.04
2022-12-16T00:22:04.518Z,100282.42
2022-12-16T00:24:32.182Z,100286.66
2022-12-16T00:26:59.891Z,100287.59
2022-12-16T00:29:27.496Z,100286.43
2022-12-16T00:31:55.238Z,100290.11
2022-12-16T00:34:23.238Z,100294.61
2022-12-16T00:36:50.827Z,100297.31
2022-12-16T00:39:18.440Z,100299.73
2022-12-16T00:41:47.621Z,100293.21
2022-12-16T00:44:15.260Z,100293.80
2022-12-16T00:46:43.355Z,100293.76
2022-12-16T00:49:10.938Z,100295.66
2022-12-16T00:51:38.545Z,100295.40
2022-12-16T00:54:06.326Z,100289.13
2022-12-16T00:56:34.035Z,100282.35
2022-12-16T00:59:02.089Z,100282.73
2022-12-16T01:01:29.874Z,100278.34
2022-12-16T01:03:58.089Z,100282.94
2022-12-16T01:06:25.863Z,100283.16
2022-12-16T01:08:53.574Z,100281.00
2022-12-16T01:11:22.692Z,100282.41
2022-12-16T01:13:52.107Z,100278.86
2022-12-16T01:16:19.982Z,100275.33
2022-12-16T01:18:47.705Z,100274.33
2022-12-16T01:21:15.864Z,100276.78
2022-12-16T01:23:43.555Z,100277.95
2022-12-16T01:26:16.745Z,100275.27
2022-12-16T01:28:45.388Z,100272.40
2022-12-16T01:31:15.982Z,100279.16
2022-12-16T01:33:44.414Z,100276.72
2022-12-16T01:36:12.058Z,100269.23
2022-12-16T01:38:42.470Z,100254.16
2022-12-16T01:41:11.905Z,100255.58
2022-12-16T01:43:41.507Z,100257.96
2022-12-16T01:46:12.297Z,100258.14
2022-12-16T01:48:45.920Z,100258.23
2022-12-16T01:51:35.890Z,100252.37
2022-12-16T01:54:08.907Z,100244.39
2022-12-16T01:56:41.020Z,100239.52
2022-12-16T01:59:11.481Z,100239.81
2022-12-16T02:01:39.288Z,100245.24
2022-12-16T02:04:07.160Z,100247.39
2022-12-16T02:06:34.909Z,100243.77
2022-12-16T02:09:06.824Z,100239.60
2022-12-16T02:12:16.228Z,100235.10
2022-12-16T02:14:55.733Z,100233.92
2022-12-16T02:17:41.107Z,100231.55
2022-12-16T02:20:39.570Z,100244.52
2022-12-16T02:23:34.667Z,100243.73
2022-12-16T02:38:39.819Z,100217.43
2022-12-16T02:41:17.721Z,100212.55
2022-12-16T02:43:51.524Z,100205.40
2022-12-16T02:46:24.202Z,100202.67
2022-12-16T02:48:51.935Z,100197.88
2022-12-16T02:51:21.456Z,100191.00
2022-12-16T02:53:51.223Z,100183.11
2022-12-16T02:56:54.541Z,100175.29
2022-12-16T02:59:41.955Z,100174.04
2022-12-16T03:02:30.856Z,100173.09
2022-12-16T03:05:06.871Z,100168.83
2022-12-16T03:07:36.673Z,100167.58
2022-12-16T03:10:08.720Z,100167.05
2022-12-16T03:12:40.443Z,100172.11
2022-12-16T03:15:09.101Z,100178.46
2022-12-16T03:17:38.198Z,100179.39
2022-12-16T03:20:15.692Z,100186.77
2022-12-16T03:22:46.791Z,100177.40
2022-12-16T03:25:15.310Z,100175.88
2022-12-16T03:28:14.446Z,100178.30
2022-12-16T03:30:47.606Z,100174.14
2022-12-16T03:33:23.052Z,100174.17
2022-12-16T03:35:59.943Z,100167.11
2022-12-16T03:38:28.594Z,100162.39
2022-12-16T03:40:58.222Z,100153.95
2022-12-16T03:43:25.940Z,100142.92
2022-12-16T03:45:56.770Z,100139.94
2022-12-16T03:48:26.247Z,100136.07
2022-12-16T03:50:53.880Z,100131.02
2022-12-16T03:53:26.438Z,100134.56
2022-12-16T03:55:55.026Z,100130.09
2022-12-16T03:58:22.663Z,100131.17
2022-12-16T04:00:50.644Z,100131.63
2022-12-16T04:03:18.388Z,100122.81
2022-12-16T04:05:46.574Z,100117.48
2022-12-16T04:08:14.217Z,100113.83
2022-12-16T04:11:00.534Z,100111.30
2022-12-16T04:13:46.795Z,100111.35
2022-12-16T04:16:35.940Z,100107.21
2022-12-16T04:19:22.471Z,100105.38
2022-12-16T04:22:09.550Z,100104.96
2022-12-16T04:24:37.175Z,100107.67
2022-12-16T04:27:23.226Z,100109.41
2022-12-16T04:30:09.302Z,100111.29
2022-12-16T04:32:55.989Z,100113.85
2022-12-16T04:35:41.939Z,100108.51
2022-12-16T04:38:28.576Z,100108.43
2022-12-16T04:41:14.536Z,100107.39
2022-12-16T04:44:00.846Z,100100.20
2022-12-16T04:46:47.598Z,100101.67
2022-12-16T04:49:34.489Z,100100.77
2022-12-16T04:52:21.195Z,100098.42
2022-12-16T04:55:07.494Z,100093.55
2022-12-16T04:57:53.678Z,100091.70
2022-12-16T05:00:40.375Z,100094.61
2022-12-16T05:03:27.280Z,100095.73
2022-12-16T05:06:13.636Z,100094.80
2022-12-16T05:09:00.036Z,100092.20
2022-12-16T05:11:46.483Z,100089.95
2022-12-16T05:14:32.721Z,100090.52
2022-12-16T05:17:19.026Z,100085.95
2022-12-16T05:20:05.537Z,100088.51
2022-12-16T05:22:52.318Z,100084.64
2022-12-16T05:25:38.354Z,100081.69
2022-12-16T05:28:24.384Z,100079.10
2022-12-16T05:31:10.660Z,100080.33
2022-12-16T05:33:56.683Z,100083.94
2022-12-16T05:36:43.122Z,100082.88
2022-12-16T05:39:29.211Z,100084.23
2022-12-16T05:42:15.563Z,100086.38
2022-12-16T05:45:01.740Z,100091.69
2022-12-16T05:47:47.990Z,100093.72
2022-12-16T05:50:34.584Z,100100.23
2022-12-16T05:53:27.762Z,100098.33
2022-12-16T05:56:15.629Z,100093.54
2022-12-16T05:59:01.792Z,100087.02
2022-12-16T06:01:48.310Z,100091.98
2022-12-16T06:04:34.731Z,100100.86
2022-12-16T06:07:21.027Z,100103.46
2022-12-16T06:10:07.120Z,100103.94
2022-12-16T06:12:53.381Z,100104.40
2022-12-16T06:15:39.420Z,100104.08
2022-12-16T06:18:25.620Z,100101.70
2022-12-16T06:21:11.745Z,100101.94
2022-12-16T06:23:58.178Z,100100.30
2022-12-16T06:26:44.796Z,100105.96
2022-12-16T06:29:31.128Z,100101.71
2022-12-16T06:32:17.306Z,100090.36
2022-12-16T06:35:03.547Z,100096.23
2022-12-16T06:37:49.586Z,100099.95
2022-12-16T06:40:35.845Z,100093.46
2022-12-16T06:43:22.324Z,100093.65
2022-12-16T06:46:08.662Z,100086.31
2022-12-16T06:48:55.085Z,100087.70
2022-12-16T06:51:41.354Z,100088.41
2022-12-16T06:54:27.349Z,100096.89
2022-12-16T06:57:13.528Z,100102.58
2022-12-16T06:59:59.641Z,100111.16
2022-12-16T07:02:45.758Z,100114.56
2022-12-16T07:05:32.396Z,100114.55
2022-12-16T07:08:18.765Z,100110.95
2022-12-16T07:11:16.223Z,100110.10
2022-12-16T07:14:04.000Z,100108.69
2022-12-16T07:16:50.159Z,100111.05
2022-12-16T07:19:36.517Z,100120.23
2022-12-16T07:22:22.655Z,100124.64
2022-12-16T07:25:08.706Z,100128.48
2022-12-16T07:27:54.630Z,100134.19
2022-12-16T07:30:40.875Z,100138.52
2022-12-16T07:33:26.844Z,100129.64
2022-12-16T07:36:13.375Z,100131.13
2022-12-16T07:38:59.479Z,100135.17
2022-12-16T07:41:45.674Z,100130.21
2022-12-16T07:44:32.416Z,100120.60
2022-12-16T07:47:18.420Z,100114.92
2022-12-16T07:50:04.997Z,100108.77
2022-12-16T07:52:51.335Z,100112.64
2022-12-16T07:55:37.584Z,100106.32
2022-12-16T07:58:23.999Z,100107.02
2022-12-16T08:01:10.615Z,100099.45
2022-12-16T08:03:57.042Z,100096.67
2022-12-16T08:06:43.561Z,100096.61
2022-12-16T08:09:29.508Z,100101.63
2022-12-16T08:12:15.891Z,100099.36
2022-12-16T08:15:02.287Z,100104.15
2022-12-16T08:17:48.774Z,100102.07
2022-12-16T08:20:35.231Z,100098.55
2022-12-16T08:23:21.634Z,100093.41
2022-12-16T08:26:07.938Z,100091.92
2022-12-16T08:28:54.799Z,100090.16
2022-12-16T08:31:41.345Z,100086.88
2022-12-16T08:34:27.643Z,100082.86
2022-12-16T08:37:18.391Z,100087.46
2022-12-16T08:40:33.678Z,100102.23
2022-12-16T08:43:12.738Z,100099.55
2022-12-16T08:46:00.645Z,100098.64
2022-12-16T08:48:47.017Z,100101.58
2022-12-16T08:51:33.343Z,100094.95
2022-12-16T08:54:19.874Z,100091.48
2022-12-16T08:57:06.250Z,100077.55
2022-12-16T08:59:52.698Z,100072.73
2022-12-16T09:02:39.639Z,100065.64
2022-12-16T09:05:26.102Z,100054.44
2022-12-16T09:08:17.910Z,100052.44
2022-12-16T09:11:04.264Z,100043.45
2022-12-16T09:13:51.010Z,100033.58
2022-12-16T09:16:37.780Z,100035.11
2022-12-16T09:19:24.011Z,100034.74
2022-12-16T09:22:10.138Z,100034.73
2022-12-16T09:24:56.549Z,100032.60
2022-12-16T09:27:44.459Z,100027.74
2022-12-16T09:30:31.155Z,100020.02
2022-12-16T09:33:17.217Z,100019.23
2022-12-16T09:36:03.728Z,100019.77
2022-12-16T09:38:50.221Z,100014.94
2022-12-16T09:41:46.251Z,100013.83
2022-12-16T09:44:52.078Z,100011.90
2022-12-16T09:47:41.438Z,100005.61
2022-12-16T09:50:41.553Z,100003.24
2022-12-16T09:53:40.662Z,100001.80
2022-12-16T09:56:53.885Z,100002.31
2022-12-16T10:00:00.459Z,100001.37
2022-12-16T10:02:46.843Z,99991.56
2022-12-16T10:05:38.967Z,99994.05
2022-12-16T10:08:36.142Z,99990.75
2022-12-16T10:11:30.297Z,99991.00
2022-12-16T10:14:23.407Z,99991.39
2022-12-16T10:17:21.294Z,99994.59
2022-12-16T10:20:22.515Z,99992.77
2022-12-16T10:23:22.062Z,99985.38
2022-12-16T10:26:33.453Z,99976.91
2022-12-16T10:29:36.829Z,99976.65
2022-12-16T10:32:46.513Z,99974.29
2022-12-16T10:35:40.738Z,99971.54
2022-12-16T10:38:38.458Z,99964.21
2022-12-16T10:41:26.892Z,99952.53
2022-12-16T10:44:16.064Z,99946.62
2022-12-16T10:47:02.765Z,99942.08
2022-12-16T10:49:53.800Z,99944.23
2022-12-16T10:52:41.228Z,99939.50
2022-12-16T10:55:49.496Z,99941.70
2022-12-16T10:58:48.345Z,99945.91
2022-12-16T11:01:45.954Z,99949.80
2022-12-16T11:04:50.090Z,99942.54
2022-12-16T11:07:57.287Z,99940.24
2022-12-16T11:10:56.048Z,99933.38
2022-12-16T11:13:43.950Z,99933.44
2022-12-16T11:16:42.827Z,99936.45
2022-12-16T11:19:47.564Z,99934.59
2022-12-16T11:22:33.663Z,99928.05
2022-12-16T11:25:38.189Z,99927.16
2022-12-16T11:28:35.493Z,99922.34
2022-12-16T11:31:26.731Z,99918.83
2022-12-16T11:34:14.344Z,99920.88
2022-12-16T11:37:02.958Z,99927.33
2022-12-16T11:39:53.309Z,99924.76
2022-12-16T11:42:44.236Z,99925.89
2022-12-16T11:45:37.617Z,99915.02
2022-12-16T11:48:50.350Z,99903.17
2022-12-16T11:51:39.356Z,99912.34
2022-12-16T11:54:33.362Z,99913.84
2022-12-16T11:57:23.537Z,99914.49
2022-12-16T12:03:30.161Z,99922.62
2022-12-16T12:06:31.210Z,99923.84
2022-12-16T12:09:32.864Z,99926.35
2022-12-16T12:12:22.216Z,99925.47
2022-12-16T12:15:18.777Z,99925.61
2022-12-16T12:18:14.365Z,99925.83
2022-12-16T12:21:13.198Z,99918.77
2022-12-16T12:24:20.342Z,99913.66
2022-12-16T12:27:37.390Z,99905.20
2022-12-16T12:30:30.193Z,99906.34
2022-12-16T12:33:56.474Z,99910.38
2022-12-16T12:37:07.092Z,99922.88
2022-12-16T12:40:05.713Z,99926.78
2022-12-16T12:43:09.412Z,99913.23
2022-12-16T12:46:11.184Z,99906.08
2022-12-16T12:49:08.633Z,99904.35
2022-12-16T12:51:55.103Z,99907.09
2022-12-16T12:55:06.168Z,99911.39
2022-12-16T12:57:56.156Z,99913.66
2022-12-16T13:00:45.702Z,99920.47
2022-12-16T13:03:55.712Z,99913.73
2022-12-16T13:06:42.955Z,99903.73
2022-12-16T13:09:53.427Z,99910.83
2022-12-16T13:12:42.341Z,99910.09
2022-12-16T13:15:51.407Z,99917.20
2022-12-16T13:18:52.166Z,99919.55
2022-12-16T13:21:54.895Z,99923.96
2022-12-16T13:25:00.132Z,99923.66
2022-12-16T13:27:49.094Z,99926.40
2022-12-16T13:30:35.660Z,99928.19
2022-12-16T13:33:28.979Z,99923.62
2022-12-16T13:36:17.676Z,99921.52
2022-12-16T13:39:09.594Z,99922.05
2022-12-16T13:41:56.093Z,99922.84
2022-12-16T13:45:01.095Z,99928.40
2022-12-16T13:47:59.734Z,99938.59
2022-12-16T13:51:03.884Z,99942.02
2022-12-16T13:54:19.280Z,99945.84
2022-12-16T13:57:25.407Z,99949.55
2022-12-16T14:00:12.959Z,99958.04
2022-12-16T14:03:02.091Z,99963.85
2022-12-16T14:05:55.970Z,99960.55
2022-12-16T14:08:43.667Z,99966.09
2022-12-16T14:12:09.758Z,99975.00
2022-12-16T14:15:10.310Z,99982.74
2022-12-16T14:18:07.127Z,99982.09
2022-12-16T14:21:13.372Z,99982.86
2022-12-16T14:24:14.293Z,99986.75
2022-12-16T14:27:01.170Z,99988.23
2022-12-16T14:29:50.101Z,99988.32
2022-12-16T14:32:47.116Z,99996.80
2022-12-16T14:35:33.499Z,99999.05
2022-12-16T14:38:47.282Z,100010.17
2022-12-16T14:41:37.861Z,100015.79
2022-12-16T14:44:34.345Z,100009.58
2022-12-16T14:47:21.208Z,100001.36
2022-12-16T14:50:24.152Z,100005.86
2022-12-16T14:53:31.985Z,100003.52
2022-12-16T14:56:38.445Z,100017.89
2022-12-16T14:59:35.885Z,100022.77
2022-12-16T15:02:47.531Z,100026.02
2022-12-16T15:05:38.984Z,100022.73
2022-12-16T15:08:31.129Z,100030.52
2022-12-16T15:11:19.755Z,100040.16
2022-12-16T15:14:13.212Z,100047.90
2022-12-16T15:17:02.799Z,100053.32
2022-12-16T15:20:01.587Z,100052.55
2022-12-16T15:22:50.364Z,100046.64
2022-12-16T15:25:44.552Z,100046.35
2022-12-16T15:28:58.302Z,100052.36
2022-12-16T15:31:49.801Z,100050.80
2022-12-16T15:34:42.323Z,100053.66
2022-12-16T15:37:37.804Z,100057.65
2022-12-16T15:40:41.241Z,100063.00
2022-12-16T15:43:46.640Z,100063.19
2022-12-16T15:46:45.612Z,100060.84
2022-12-16T15:49:47.352Z,100065.06
2022-12-16T15:52:48.891Z,100071.39
2022-12-16T15:55:53.510Z,100082.31
2022-12-16T15:58:53.084Z,100085.87
2022-12-16T16:01:45.166Z,100083.31
2022-12-16T16:04:46.301Z,100076.63
2022-12-16T16:07:42.464Z,100072.11
2022-12-16T16:10:38.536Z,100067.30
2022-12-16T16:13:25.062Z,100068.30
2022-12-16T16:16:12.354Z,100068.21
2022-12-16T16:19:01.378Z,100066.16
2022-12-16T16:21:48.269Z,100072.29
2022-12-16T16:24:34.656Z,100075.88
2022-12-16T16:27:24.950Z,100080.39
2022-12-16T16:30:11.071Z,100086.73
2022-12-16T16:32:57.180Z,100089.92
2022-12-16T16:35:43.920Z,100094.66
2022-12-16T16:38:31.159Z,100100.61
2022-12-16T16:41:17.737Z,100102.31
2022-12-16T16:44:04.165Z,100097.79
2022-12-16T16:46:56.989Z,100097.69
2022-12-16T16:49:54.944Z,100102.54
2022-12-16T16:52:43.898Z,100102.24
2022-12-16T16:55:39.509Z,100107.63
2022-12-16T16:58:41.803Z,100112.70
2022-12-16T17:01:32.895Z,100116.47
2022-12-16T17:04:20.206Z,100121.80
2022-12-16T17:07:06.966Z,100128.19
2022-12-16T17:09:54.818Z,100138.95
2022-12-16T17:12:48.725Z,100149.60
2022-12-16T17:15:37.361Z,100151.63
2022-12-16T17:18:24.548Z,100146.71
2022-12-16T17:21:12.092Z,100145.95
2022-12-16T17:23:58.283Z,100145.61
2022-12-16T17:26:45.255Z,100152.48
2022-12-16T17:29:42.784Z,100153.08
2022-12-16T17:32:32.330Z,100155.62
2022-12-16T17:35:18.558Z,100155.29
2022-12-16T17:38:04.755Z,100152.17
2022-12-16T17:40:50.946Z,100159.39
2022-12-16T17:43:37.473Z,100166.60
2022-12-16T17:46:26.411Z,100172.67
2022-12-16T17:49:17.675Z,100171.01
2022-12-16T17:52:03.965Z,100170.80
2022-12-16T17:54:50.214Z,100176.31
2022-12-16T17:57:36.941Z,100181.45
2022-12-16T18:00:23.535Z,100188.09
2022-12-16T18:03:10.203Z,100191.79
2022-12-16T18:05:56.862Z,100191.09
2022-12-16T18:08:43.803Z,100193.21
2022-12-16T18:11:30.640Z,100200.39
2022-12-16T18:14:19.224Z,100207.52
2022-12-16T18:17:05.502Z,100215.77
2022-12-16T18:19:51.867Z,100214.48
2022-12-16T18:22:38.296Z,100221.42
2022-12-16T18:25:24.752Z,100218.84
2022-12-16T18:28:10.868Z,100217.48
2022-12-16T18:30:57.438Z,100223.21
2022-12-16T18:33:43.770Z,100228.59
2022-12-16T18:36:29.816Z,100226.33
2022-12-16T18:39:16.165Z,100232.16
2022-12-16T18:42:03.758Z,100238.73
2022-12-16T18:44:53.830Z,100238.38
2022-12-16T18:47:43.713Z,100246.95
2022-12-16T18:50:35.810Z,100243.75
2022-12-16T18:53:24.325Z,100247.63
2022-12-16T18:56:26.187Z,100245.40
2022-12-16T18:59:13.067Z,100254.61
2022-12-16T19:02:00.146Z,100257.21
2022-12-16T19:04:46.763Z,100260.52
2022-12-16T19:07:34.075Z,100272.65
2022-12-16T19:10:20.771Z,100273.55
2022-12-16T19:13:07.325Z,100276.69
2022-12-16T19:15:53.688Z,100278.75
2022-12-16T19:18:40.223Z,100282.87
2022-12-16T19:21:28.725Z,100284.53
2022-12-16T19:24:14.849Z,100291.30
2022-12-16T19:27:01.423Z,100297.42
2022-12-16T19:29:47.740Z,100289.36
2022-12-16T19:32:33.850Z,100289.16
2022-12-16T19:35:20.160Z,100283.34
2022-12-16T19:38:06.612Z,100283.70
2022-12-16T19:40:52.706Z,100293.18
2022-12-16T19:43:40.304Z,100301.40
2022-12-16T19:46:26.433Z,100313.05
2022-12-16T19:49:12.783Z,100315.38
2022-12-16T19:51:58.800Z,100317.02
2022-12-16T19:54:45.193Z,100326.70
2022-12-16T19:57:31.763Z,100327.19
2022-12-16T20:00:17.923Z,100335.50
2022-12-16T20:03:04.552Z,100338.98
2022-12-16T20:05:51.106Z,100343.05
2022-12-16T20:08:37.978Z,100340.03
2022-12-16T20:11:26.704Z,100339.23
2022-12-16T20:14:14.603Z,100337.11
2022-12-16T20:17:00.993Z,100340.52
2022-12-16T20:19:47.567Z,100341.34
2022-12-16T20:22:33.559Z,100338.78
2022-12-16T20:25:19.947Z,100341.16
2022-12-16T20:28:06.008Z,100340.01
2022-12-16T20:30:52.380Z,100343.80
2022-12-16T20:33:40.218Z,100346.67
2022-12-16T20:36:29.036Z,100349.10
2022-12-16T20:39:15.074Z,100340.98
2022-12-16T20:42:01.086Z,100336.83
2022-12-16T20:44:47.592Z,100336.64
2022-12-16T20:47:33.780Z,100331.08
2022-12-16T20:50:20.148Z,100328.82
2022-12-16T20:53:06.442Z,100318.45
2022-12-16T20:55:52.755Z,100321.67
2022-12-16T20:58:42.603Z,100326.80
2022-12-16T21:01:29.007Z,100332.98
2022-12-16T21:04:15.587Z,100341.54
2022-12-16T21:07:01.996Z,100341.95
2022-12-16T21:09:48.623Z,100338.81
2022-12-16T21:12:34.752Z,100351.57
2022-12-16T21:15:20.912Z,100356.13
2022-12-16T21:18:07.373Z,100357.51
2022-12-16T21:20:56.579Z,100369.77
2022-12-16T21:23:43.507Z,100371.73
2022-12-16T21:26:30.039Z,100373.71
2022-12-16T21:29:16.077Z,100380.70
2022-12-16T21:32:02.566Z,100385.77
2022-12-16T21:34:49.083Z,100385.34
2022-12-16T21:37:35.411Z,100389.11
2022-12-16T21:40:22.057Z,100395.63
2022-12-16T21:43:08.144Z,100399.98
2022-12-16T21:45:56.196Z,100415.77
2022-12-16T21:48:42.391Z,100420.90
2022-12-16T21:51:28.763Z,100425.70
2022-12-16T21:54:15.055Z,100419.55
2022-12-16T21:57:01.609Z,100418.84
2022-12-16T21:59:47.730Z,100424.51
2022-12-16T22:02:34.239Z,100428.93
2022-12-16T22:05:20.485Z,100427.46
2022-12-16T22:08:06.847Z,100424.42
2022-12-16T22:10:52.767Z,100422.61
2022-12-16T22:13:42.738Z,100421.59
2022-12-16T22:16:29.535Z,100427.91
2022-12-16T22:19:16.481Z,100431.13
2022-12-16T22:22:03.121Z,100444.20
2022-12-16T22:24:49.429Z,100453.11
2022-12-16T22:27:35.861Z,100451.04
2022-12-16T22:30:23.175Z,100453.50
2022-12-16T22:33:09.325Z,100456.50
2022-12-16T22:35:56.039Z,100456.23
2022-12-16T22:38:42.142Z,100463.19
2022-12-16T22:41:28.516Z,100473.18
2022-12-16T22:44:14.788Z,100478.09
2022-12-16T22:47:00.946Z,100480.86
2022-12-16T22:49:47.537Z,100480.56
2022-12-16T22:52:34.387Z,100481.64
2022-12-16T22:55:20.520Z,100483.04
2022-12-16T22:58:07.123Z,100480.91
2022-12-16T23:00:53.123Z,100477.67
2022-12-16T23:03:43.894Z,100483.15
2022-12-16T23:06:30.788Z,100483.94
2022-12-16T23:09:17.285Z,100483.91
2022-12-16T23:12:03.512Z,100484.30
2022-12-16T23:14:49.780Z,100492.65
2022-12-16T23:17:36.075Z,100488.56
2022-12-16T23:20:24.023Z,100488.94
2022-12-16T23:23:13.068Z,100489.59
2022-12-16T23:26:04.024Z,100499.59
2022-12-16T23:28:50.602Z,100504.58
2022-12-16T23:31:37.267Z,100501.25
2022-12-16T23:34:23.828Z,100489.85
2022-12-16T23:37:10.381Z,100483.46
2022-12-16T23:39:56.734Z,100492.25
2022-12-16T23:42:43.529Z,100498.80
2022-12-16T23:45:30.053Z,100501.82
2022-12-16T23:48:24.731Z,100499.08
2022-12-16T23:51:11.338Z,100500.42
2022-12-16T23:53:57.507Z,100507.08
2022-12-16T23:56:44.416Z,100510.90
2022-12-16T23:59:30.493Z,100521.83
